sensor_id;sensor_type;location;lat;lon;timestamp;P1;durP1;ratioP1;P2;durP2;ratioP2
59109;SDS011;44895;47.438;18.978;2022-08-19T00:02:43;9.93;;;7.25;;
59109;SDS011;44895;47.438;18.978;2022-08-19T00:05:47;9.70;;;5.60;;
59109;SDS011;44895;47.438;18.978;2022-08-19T00:08:50;10.18;;;6.35;;
59109;SDS011;44895;47.438;18.978;2022-08-19T00:11:54;9.77;;;6.18;;
59109;SDS011;44895;47.438;18.978;2022-08-19T00:14:59;11.50;;;6.75;;
59109;SDS011;44895;47.438;18.978;2022-08-19T00:18:03;9.35;;;5.80;;
59109;SDS011;44895;47.438;18.978;2022-08-19T00:21:07;10.20;;;6.13;;
59109;SDS011;44895;47.438;18.978;2022-08-19T00:24:11;11.77;;;6.45;;
59109;SDS011;44895;47.438;18.978;2022-08-19T00:27:17;10.68;;;5.65;;
59109;SDS011;44895;47.438;18.978;2022-08-19T00:30:21;9.27;;;6.38;;
59109;SDS011;44895;47.438;18.978;2022-08-19T00:33:25;9.45;;;6.38;;
59109;SDS011;44895;47.438;18.978;2022-08-19T00:36:29;9.00;;;6.03;;
59109;SDS011;44895;47.438;18.978;2022-08-19T00:39:33;10.77;;;6.13;;
59109;SDS011;44895;47.438;18.978;2022-08-19T00:42:37;10.02;;;6.47;;
59109;SDS011;44895;47.438;18.978;2022-08-19T00:45:41;8.98;;;5.93;;
59109;SDS011;44895;47.438;18.978;2022-08-19T00:48:46;9.35;;;6.63;;
59109;SDS011;44895;47.438;18.978;2022-08-19T00:51:51;9.50;;;6.05;;
59109;SDS011;44895;47.438;18.978;2022-08-19T00:54:58;9.68;;;5.80;;
59109;SDS011;44895;47.438;18.978;2022-08-19T00:58:10;9.93;;;6.35;;
59109;SDS011;44895;47.438;18.978;2022-08-19T01:01:17;11.80;;;5.95;;
59109;SDS011;44895;47.438;18.978;2022-08-19T01:04:20;9.48;;;5.82;;
59109;SDS011;44895;47.438;18.978;2022-08-19T01:07:24;10.32;;;6.10;;
59109;SDS011;44895;47.438;18.978;2022-08-19T01:10:30;10.25;;;6.82;;
59109;SDS011;44895;47.438;18.978;2022-08-19T01:13:36;9.80;;;6.57;;
59109;SDS011;44895;47.438;18.978;2022-08-19T01:16:40;9.38;;;5.80;;
59109;SDS011;44895;47.438;18.978;2022-08-19T01:19:45;9.27;;;6.30;;
59109;SDS011;44895;47.438;18.978;2022-08-19T01:22:52;11.57;;;6.88;;
59109;SDS011;44895;47.438;18.978;2022-08-19T01:25:57;8.85;;;5.25;;
59109;SDS011;44895;47.438;18.978;2022-08-19T01:29:01;9.05;;;6.05;;
59109;SDS011;44895;47.438;18.978;2022-08-19T01:32:06;9.13;;;5.28;;
59109;SDS011;44895;47.438;18.978;2022-08-19T01:35:11;9.00;;;5.57;;
59109;SDS011;44895;47.438;18.978;2022-08-19T01:38:20;10.65;;;5.75;;
59109;SDS011;44895;47.438;18.978;2022-08-19T01:41:27;9.38;;;5.95;;
59109;SDS011;44895;47.438;18.978;2022-08-19T01:44:30;9.80;;;6.10;;
59109;SDS011;44895;47.438;18.978;2022-08-19T01:47:35;9.48;;;6.00;;
59109;SDS011;44895;47.438;18.978;2022-08-19T01:50:39;12.65;;;6.05;;
59109;SDS011;44895;47.438;18.978;2022-08-19T01:53:45;8.95;;;5.35;;
59109;SDS011;44895;47.438;18.978;2022-08-19T01:56:51;9.20;;;5.75;;
59109;SDS011;44895;47.438;18.978;2022-08-19T01:59:58;13.98;;;6.32;;
59109;SDS011;44895;47.438;18.978;2022-08-19T02:03:04;9.95;;;5.68;;
59109;SDS011;44895;47.438;18.978;2022-08-19T02:06:07;10.35;;;5.03;;
59109;SDS011;44895;47.438;18.978;2022-08-19T02:09:12;9.88;;;5.85;;
59109;SDS011;44895;47.438;18.978;2022-08-19T02:12:16;9.05;;;5.47;;
59109;SDS011;44895;47.438;18.978;2022-08-19T02:15:20;10.65;;;6.32;;
59109;SDS011;44895;47.438;18.978;2022-08-19T02:18:24;11.68;;;6.00;;
59109;SDS011;44895;47.438;18.978;2022-08-19T02:21:28;13.82;;;7.28;;
59109;SDS011;44895;47.438;18.978;2022-08-19T02:24:33;9.23;;;5.82;;
59109;SDS011;44895;47.438;18.978;2022-08-19T02:27:38;9.27;;;6.10;;
59109;SDS011;44895;47.438;18.978;2022-08-19T02:30:43;11.65;;;7.03;;
59109;SDS011;44895;47.438;18.978;2022-08-19T02:33:47;9.20;;;6.18;;
59109;SDS011;44895;47.438;18.978;2022-08-19T02:36:51;9.13;;;6.00;;
59109;SDS011;44895;47.438;18.978;2022-08-19T02:39:55;9.50;;;6.05;;
59109;SDS011;44895;47.438;18.978;2022-08-19T02:43:01;8.88;;;5.78;;
59109;SDS011;44895;47.438;18.978;2022-08-19T02:46:29;10.57;;;7.00;;
59109;SDS011;44895;47.438;18.978;2022-08-19T02:49:32;9.40;;;5.88;;
59109;SDS011;44895;47.438;18.978;2022-08-19T02:52:36;8.88;;;6.35;;
59109;SDS011;44895;47.438;18.978;2022-08-19T02:55:44;10.43;;;6.63;;
59109;SDS011;44895;47.438;18.978;2022-08-19T02:58:49;9.85;;;6.40;;
59109;SDS011;44895;47.438;18.978;2022-08-19T03:01:52;8.90;;;5.95;;
59109;SDS011;44895;47.438;18.978;2022-08-19T03:04:56;13.05;;;6.28;;
59109;SDS011;44895;47.438;18.978;2022-08-19T03:08:00;9.85;;;6.53;;
59109;SDS011;44895;47.438;18.978;2022-08-19T03:11:04;8.68;;;5.80;;
59109;SDS011;44895;47.438;18.978;2022-08-19T03:14:09;10.45;;;6.32;;
59109;SDS011;44895;47.438;18.978;2022-08-19T03:17:13;9.63;;;6.13;;
59109;SDS011;44895;47.438;18.978;2022-08-19T03:20:17;15.05;;;6.20;;
59109;SDS011;44895;47.438;18.978;2022-08-19T03:23:20;11.07;;;7.43;;
59109;SDS011;44895;47.438;18.978;2022-08-19T03:26:24;9.13;;;6.28;;
59109;SDS011;44895;47.438;18.978;2022-08-19T03:29:28;14.10;;;7.22;;
59109;SDS011;44895;47.438;18.978;2022-08-19T03:32:34;11.98;;;7.07;;
59109;SDS011;44895;47.438;18.978;2022-08-19T03:35:38;9.18;;;5.78;;
59109;SDS011;44895;47.438;18.978;2022-08-19T03:38:43;11.77;;;6.20;;
59109;SDS011;44895;47.438;18.978;2022-08-19T03:41:49;11.60;;;5.93;;
59109;SDS011;44895;47.438;18.978;2022-08-19T03:44:54;13.05;;;8.65;;
59109;SDS011;44895;47.438;18.978;2022-08-19T03:47:57;10.07;;;6.40;;
59109;SDS011;44895;47.438;18.978;2022-08-19T03:51:02;10.25;;;6.38;;
59109;SDS011;44895;47.438;18.978;2022-08-19T03:54:07;14.93;;;7.20;;
59109;SDS011;44895;47.438;18.978;2022-08-19T03:57:13;10.02;;;6.60;;
59109;SDS011;44895;47.438;18.978;2022-08-19T04:00:17;10.98;;;7.20;;
59109;SDS011;44895;47.438;18.978;2022-08-19T04:03:21;8.50;;;5.55;;
59109;SDS011;44895;47.438;18.978;2022-08-19T04:06:26;11.60;;;5.57;;
59109;SDS011;44895;47.438;18.978;2022-08-19T04:09:35;8.68;;;5.97;;
59109;SDS011;44895;47.438;18.978;2022-08-19T04:12:41;12.18;;;8.50;;
59109;SDS011;44895;47.438;18.978;2022-08-19T04:15:45;10.38;;;6.80;;
59109;SDS011;44895;47.438;18.978;2022-08-19T04:18:50;9.68;;;6.38;;
59109;SDS011;44895;47.438;18.978;2022-08-19T04:21:54;9.38;;;6.85;;
59109;SDS011;44895;47.438;18.978;2022-08-19T04:24:58;11.85;;;6.70;;
59109;SDS011;44895;47.438;18.978;2022-08-19T04:28:01;10.05;;;6.65;;
59109;SDS011;44895;47.438;18.978;2022-08-19T04:31:06;10.52;;;8.25;;
59109;SDS011;44895;47.438;18.978;2022-08-19T04:34:18;14.95;;;7.88;;
59109;SDS011;44895;47.438;18.978;2022-08-19T04:37:27;11.40;;;6.45;;
59109;SDS011;44895;47.438;18.978;2022-08-19T04:40:31;12.20;;;6.78;;
59109;SDS011;44895;47.438;18.978;2022-08-19T04:43:53;9.73;;;5.95;;
59109;SDS011;44895;47.438;18.978;2022-08-19T04:46:57;9.10;;;6.53;;
59109;SDS011;44895;47.438;18.978;2022-08-19T04:50:01;10.13;;;5.93;;
59109;SDS011;44895;47.438;18.978;2022-08-19T04:53:05;11.23;;;7.35;;
59109;SDS011;44895;47.438;18.978;2022-08-19T04:56:10;10.20;;;6.32;;
59109;SDS011;44895;47.438;18.978;2022-08-19T05:02:21;10.60;;;6.60;;
59109;SDS011;44895;47.438;18.978;2022-08-19T05:05:28;11.70;;;8.47;;
59109;SDS011;44895;47.438;18.978;2022-08-19T05:08:32;9.50;;;5.60;;
59109;SDS011;44895;47.438;18.978;2022-08-19T05:11:37;10.50;;;6.88;;
59109;SDS011;44895;47.438;18.978;2022-08-19T05:14:42;13.55;;;7.07;;
59109;SDS011;44895;47.438;18.978;2022-08-19T05:17:49;9.50;;;6.63;;
59109;SDS011;44895;47.438;18.978;2022-08-19T05:21:12;11.20;;;6.55;;
59109;SDS011;44895;47.438;18.978;2022-08-19T05:24:36;11.68;;;6.63;;
59109;SDS011;44895;47.438;18.978;2022-08-19T05:27:40;10.55;;;6.00;;
59109;SDS011;44895;47.438;18.978;2022-08-19T05:30:45;11.45;;;5.20;;
59109;SDS011;44895;47.438;18.978;2022-08-19T05:33:49;11.07;;;5.95;;
59109;SDS011;44895;47.438;18.978;2022-08-19T05:36:54;9.68;;;6.15;;
59109;SDS011;44895;47.438;18.978;2022-08-19T05:40:01;9.80;;;6.05;;
59109;SDS011;44895;47.438;18.978;2022-08-19T05:43:07;9.60;;;5.45;;
59109;SDS011;44895;47.438;18.978;2022-08-19T05:46:16;8.77;;;5.93;;
59109;SDS011;44895;47.438;18.978;2022-08-19T05:49:22;12.68;;;7.03;;
59109;SDS011;44895;47.438;18.978;2022-08-19T05:52:26;8.98;;;5.45;;
59109;SDS011;44895;47.438;18.978;2022-08-19T05:55:31;10.27;;;6.40;;
59109;SDS011;44895;47.438;18.978;2022-08-19T05:58:36;9.10;;;5.90;;
59109;SDS011;44895;47.438;18.978;2022-08-19T06:01:42;8.95;;;6.18;;
59109;SDS011;44895;47.438;18.978;2022-08-19T06:04:47;10.98;;;7.10;;
59109;SDS011;44895;47.438;18.978;2022-08-19T06:07:52;8.68;;;5.47;;
59109;SDS011;44895;47.438;18.978;2022-08-19T06:10:57;11.40;;;5.68;;
59109;SDS011;44895;47.438;18.978;2022-08-19T06:14:05;15.68;;;6.93;;
59109;SDS011;44895;47.438;18.978;2022-08-19T06:17:11;10.32;;;6.57;;
59109;SDS011;44895;47.438;18.978;2022-08-19T06:20:16;10.35;;;5.78;;
59109;SDS011;44895;47.438;18.978;2022-08-19T06:23:21;9.27;;;5.63;;
59109;SDS011;44895;47.438;18.978;2022-08-19T06:26:26;8.88;;;5.40;;
59109;SDS011;44895;47.438;18.978;2022-08-19T06:29:30;11.18;;;6.78;;
59109;SDS011;44895;47.438;18.978;2022-08-19T06:32:35;8.45;;;5.13;;
59109;SDS011;44895;47.438;18.978;2022-08-19T06:35:40;8.18;;;4.93;;
59109;SDS011;44895;47.438;18.978;2022-08-19T06:38:44;7.20;;;4.30;;
59109;SDS011;44895;47.438;18.978;2022-08-19T06:41:49;7.97;;;4.18;;
59109;SDS011;44895;47.438;18.978;2022-08-19T06:44:54;8.60;;;5.70;;
59109;SDS011;44895;47.438;18.978;2022-08-19T06:47:58;7.93;;;5.13;;
59109;SDS011;44895;47.438;18.978;2022-08-19T06:51:02;8.32;;;4.97;;
59109;SDS011;44895;47.438;18.978;2022-08-19T06:54:07;17.75;;;7.55;;
59109;SDS011;44895;47.438;18.978;2022-08-19T06:57:11;9.98;;;5.68;;
59109;SDS011;44895;47.438;18.978;2022-08-19T07:00:18;12.60;;;5.85;;
59109;SDS011;44895;47.438;18.978;2022-08-19T07:03:22;11.77;;;5.47;;
59109;SDS011;44895;47.438;18.978;2022-08-19T07:06:26;8.63;;;5.30;;
59109;SDS011;44895;47.438;18.978;2022-08-19T07:09:30;8.35;;;5.18;;
59109;SDS011;44895;47.438;18.978;2022-08-19T07:12:34;9.18;;;5.25;;
59109;SDS011;44895;47.438;18.978;2022-08-19T07:15:38;7.93;;;4.45;;
59109;SDS011;44895;47.438;18.978;2022-08-19T07:18:42;7.97;;;4.65;;
59109;SDS011;44895;47.438;18.978;2022-08-19T07:21:48;9.23;;;4.60;;
59109;SDS011;44895;47.438;18.978;2022-08-19T07:24:55;10.85;;;5.05;;
59109;SDS011;44895;47.438;18.978;2022-08-19T07:27:59;12.13;;;4.30;;
59109;SDS011;44895;47.438;18.978;2022-08-19T07:31:03;8.35;;;4.32;;
59109;SDS011;44895;47.438;18.978;2022-08-19T07:34:07;10.50;;;4.88;;
59109;SDS011;44895;47.438;18.978;2022-08-19T07:37:14;9.60;;;5.90;;
59109;SDS011;44895;47.438;18.978;2022-08-19T07:40:17;8.27;;;4.63;;
59109;SDS011;44895;47.438;18.978;2022-08-19T07:43:21;13.98;;;5.55;;
59109;SDS011;44895;47.438;18.978;2022-08-19T07:46:29;11.93;;;4.57;;
59109;SDS011;44895;47.438;18.978;2022-08-19T07:49:36;7.88;;;4.68;;
59109;SDS011;44895;47.438;18.978;2022-08-19T07:52:40;8.85;;;4.78;;
59109;SDS011;44895;47.438;18.978;2022-08-19T07:55:47;7.75;;;4.55;;
59109;SDS011;44895;47.438;18.978;2022-08-19T07:58:52;11.98;;;5.18;;
59109;SDS011;44895;47.438;18.978;2022-08-19T08:01:56;8.35;;;4.18;;
59109;SDS011;44895;47.438;18.978;2022-08-19T08:05:03;12.23;;;4.55;;
59109;SDS011;44895;47.438;18.978;2022-08-19T08:08:25;8.38;;;4.70;;
59109;SDS011;44895;47.438;18.978;2022-08-19T08:11:52;11.43;;;4.07;;
59109;SDS011;44895;47.438;18.978;2022-08-19T08:15:03;8.10;;;3.72;;
59109;SDS011;44895;47.438;18.978;2022-08-19T08:18:11;6.93;;;4.18;;
59109;SDS011;44895;47.438;18.978;2022-08-19T08:21:15;8.73;;;4.60;;
59109;SDS011;44895;47.438;18.978;2022-08-19T08:24:18;9.68;;;4.57;;
59109;SDS011;44895;47.438;18.978;2022-08-19T08:27:23;7.97;;;3.95;;
59109;SDS011;44895;47.438;18.978;2022-08-19T08:30:28;8.60;;;4.93;;
59109;SDS011;44895;47.438;18.978;2022-08-19T08:33:33;8.00;;;4.77;;
59109;SDS011;44895;47.438;18.978;2022-08-19T08:36:38;6.80;;;3.97;;
59109;SDS011;44895;47.438;18.978;2022-08-19T08:39:48;7.38;;;3.75;;
59109;SDS011;44895;47.438;18.978;2022-08-19T08:46:30;9.43;;;5.10;;
59109;SDS011;44895;47.438;18.978;2022-08-19T08:50:02;7.47;;;4.10;;
59109;SDS011;44895;47.438;18.978;2022-08-19T08:53:14;6.88;;;4.07;;
59109;SDS011;44895;47.438;18.978;2022-08-19T08:56:20;8.10;;;4.65;;
59109;SDS011;44895;47.438;18.978;2022-08-19T08:59:31;7.43;;;3.85;;
59109;SDS011;44895;47.438;18.978;2022-08-19T09:02:40;8.57;;;4.28;;
59109;SDS011;44895;47.438;18.978;2022-08-19T09:09:43;6.72;;;3.95;;
59109;SDS011;44895;47.438;18.978;2022-08-19T09:16:15;9.85;;;4.55;;
59109;SDS011;44895;47.438;18.978;2022-08-19T09:19:23;10.73;;;4.53;;
59109;SDS011;44895;47.438;18.978;2022-08-19T09:22:27;7.85;;;3.88;;
59109;SDS011;44895;47.438;18.978;2022-08-19T09:25:31;7.10;;;3.83;;
59109;SDS011;44895;47.438;18.978;2022-08-19T09:28:37;8.40;;;4.65;;
59109;SDS011;44895;47.438;18.978;2022-08-19T09:31:40;7.53;;;4.05;;
59109;SDS011;44895;47.438;18.978;2022-08-19T09:34:44;9.90;;;4.47;;
59109;SDS011;44895;47.438;18.978;2022-08-19T09:37:49;8.32;;;4.47;;
59109;SDS011;44895;47.438;18.978;2022-08-19T09:40:52;8.35;;;4.25;;
59109;SDS011;44895;47.438;18.978;2022-08-19T09:43:57;7.43;;;4.18;;
59109;SDS011;44895;47.438;18.978;2022-08-19T09:47:01;9.77;;;5.03;;
59109;SDS011;44895;47.438;18.978;2022-08-19T09:50:07;8.45;;;5.85;;
59109;SDS011;44895;47.438;18.978;2022-08-19T09:53:12;8.32;;;4.65;;
59109;SDS011;44895;47.438;18.978;2022-08-19T09:56:16;7.65;;;4.28;;
59109;SDS011;44895;47.438;18.978;2022-08-19T09:59:21;7.23;;;4.80;;
59109;SDS011;44895;47.438;18.978;2022-08-19T10:02:25;7.28;;;3.95;;
59109;SDS011;44895;47.438;18.978;2022-08-19T10:05:29;7.38;;;4.32;;
59109;SDS011;44895;47.438;18.978;2022-08-19T10:08:51;10.32;;;5.40;;
59109;SDS011;44895;47.438;18.978;2022-08-19T10:11:55;8.75;;;4.32;;
59109;SDS011;44895;47.438;18.978;2022-08-19T10:14:59;7.50;;;4.72;;
59109;SDS011;44895;47.438;18.978;2022-08-19T10:18:03;8.98;;;5.07;;
59109;SDS011;44895;47.438;18.978;2022-08-19T10:21:15;8.75;;;4.78;;
59109;SDS011;44895;47.438;18.978;2022-08-19T10:24:20;8.98;;;5.00;;
59109;SDS011;44895;47.438;18.978;2022-08-19T10:27:27;7.57;;;3.85;;
59109;SDS011;44895;47.438;18.978;2022-08-19T10:30:30;7.63;;;4.35;;
59109;SDS011;44895;47.438;18.978;2022-08-19T10:33:35;7.20;;;4.28;;
59109;SDS011;44895;47.438;18.978;2022-08-19T10:36:39;8.65;;;5.22;;
59109;SDS011;44895;47.438;18.978;2022-08-19T10:39:44;8.40;;;4.80;;
59109;SDS011;44895;47.438;18.978;2022-08-19T10:42:51;8.30;;;4.57;;
59109;SDS011;44895;47.438;18.978;2022-08-19T10:45:55;7.32;;;4.15;;
59109;SDS011;44895;47.438;18.978;2022-08-19T10:49:00;7.82;;;4.40;;
59109;SDS011;44895;47.438;18.978;2022-08-19T10:52:05;7.68;;;3.67;;
59109;SDS011;44895;47.438;18.978;2022-08-19T10:55:27;7.72;;;5.53;;
59109;SDS011;44895;47.438;18.978;2022-08-19T10:58:49;8.70;;;6.00;;
59109;SDS011;44895;47.438;18.978;2022-08-19T11:01:53;8.73;;;6.20;;
59109;SDS011;44895;47.438;18.978;2022-08-19T11:05:02;11.13;;;4.75;;
59109;SDS011;44895;47.438;18.978;2022-08-19T11:08:06;7.90;;;5.03;;
59109;SDS011;44895;47.438;18.978;2022-08-19T11:11:14;9.05;;;6.40;;
59109;SDS011;44895;47.438;18.978;2022-08-19T11:14:18;8.52;;;5.30;;
59109;SDS011;44895;47.438;18.978;2022-08-19T11:17:23;8.90;;;6.97;;
59109;SDS011;44895;47.438;18.978;2022-08-19T11:20:27;10.63;;;6.85;;
59109;SDS011;44895;47.438;18.978;2022-08-19T11:23:33;14.60;;;12.15;;
59109;SDS011;44895;47.438;18.978;2022-08-19T11:26:38;14.15;;;8.48;;
59109;SDS011;44895;47.438;18.978;2022-08-19T11:29:44;11.68;;;9.45;;
59109;SDS011;44895;47.438;18.978;2022-08-19T11:32:47;29.50;;;10.50;;
59109;SDS011;44895;47.438;18.978;2022-08-19T11:35:52;10.48;;;7.85;;
59109;SDS011;44895;47.438;18.978;2022-08-19T11:38:56;13.68;;;11.57;;
59109;SDS011;44895;47.438;18.978;2022-08-19T11:42:00;12.32;;;11.05;;
59109;SDS011;44895;47.438;18.978;2022-08-19T11:45:25;18.30;;;16.50;;
59109;SDS011;44895;47.438;18.978;2022-08-19T11:48:30;18.42;;;16.58;;
59109;SDS011;44895;47.438;18.978;2022-08-19T11:51:33;13.82;;;12.43;;
59109;SDS011;44895;47.438;18.978;2022-08-19T11:54:37;18.67;;;12.90;;
59109;SDS011;44895;47.438;18.978;2022-08-19T11:57:41;21.27;;;12.07;;
59109;SDS011;44895;47.438;18.978;2022-08-19T12:00:46;16.40;;;10.02;;
59109;SDS011;44895;47.438;18.978;2022-08-19T12:03:50;13.60;;;8.73;;
59109;SDS011;44895;47.438;18.978;2022-08-19T12:06:55;12.43;;;8.48;;
59109;SDS011;44895;47.438;18.978;2022-08-19T12:09:59;13.10;;;9.25;;
59109;SDS011;44895;47.438;18.978;2022-08-19T12:13:03;16.88;;;10.07;;
59109;SDS011;44895;47.438;18.978;2022-08-19T12:16:10;13.20;;;8.32;;
59109;SDS011;44895;47.438;18.978;2022-08-19T12:19:15;13.13;;;9.00;;
59109;SDS011;44895;47.438;18.978;2022-08-19T12:22:19;11.20;;;7.15;;
59109;SDS011;44895;47.438;18.978;2022-08-19T12:25:24;10.35;;;7.40;;
59109;SDS011;44895;47.438;18.978;2022-08-19T12:28:28;11.57;;;8.60;;
59109;SDS011;44895;47.438;18.978;2022-08-19T12:31:32;17.00;;;11.07;;
59109;SDS011;44895;47.438;18.978;2022-08-19T12:34:36;13.65;;;9.07;;
59109;SDS011;44895;47.438;18.978;2022-08-19T12:37:40;13.32;;;9.60;;
59109;SDS011;44895;47.438;18.978;2022-08-19T12:40:48;10.25;;;7.18;;
59109;SDS011;44895;47.438;18.978;2022-08-19T12:43:52;11.73;;;7.53;;
59109;SDS011;44895;47.438;18.978;2022-08-19T12:46:56;13.27;;;8.82;;
59109;SDS011;44895;47.438;18.978;2022-08-19T12:50:00;8.68;;;5.05;;
59109;SDS011;44895;47.438;18.978;2022-08-19T12:53:04;10.40;;;4.78;;
59109;SDS011;44895;47.438;18.978;2022-08-19T12:56:09;8.68;;;3.95;;
59109;SDS011;44895;47.438;18.978;2022-08-19T12:59:14;5.75;;;3.15;;
59109;SDS011;44895;47.438;18.978;2022-08-19T13:02:20;6.95;;;4.03;;
59109;SDS011;44895;47.438;18.978;2022-08-19T13:05:26;6.63;;;3.30;;
59109;SDS011;44895;47.438;18.978;2022-08-19T13:08:32;8.40;;;3.33;;
59109;SDS011;44895;47.438;18.978;2022-08-19T13:11:36;6.60;;;3.45;;
59109;SDS011;44895;47.438;18.978;2022-08-19T13:14:40;10.30;;;5.13;;
59109;SDS011;44895;47.438;18.978;2022-08-19T13:17:44;8.90;;;4.97;;
59109;SDS011;44895;47.438;18.978;2022-08-19T13:20:48;7.60;;;3.40;;
59109;SDS011;44895;47.438;18.978;2022-08-19T13:23:52;6.55;;;3.45;;
59109;SDS011;44895;47.438;18.978;2022-08-19T13:26:56;14.75;;;6.60;;
59109;SDS011;44895;47.438;18.978;2022-08-19T13:30:00;9.00;;;3.30;;
59109;SDS011;44895;47.438;18.978;2022-08-19T13:33:23;7.72;;;3.50;;
59109;SDS011;44895;47.438;18.978;2022-08-19T13:36:28;9.48;;;3.75;;
59109;SDS011;44895;47.438;18.978;2022-08-19T13:39:32;10.57;;;3.63;;
59109;SDS011;44895;47.438;18.978;2022-08-19T13:42:36;12.88;;;5.65;;
59109;SDS011;44895;47.438;18.978;2022-08-19T13:45:40;10.05;;;3.55;;
59109;SDS011;44895;47.438;18.978;2022-08-19T13:48:44;13.05;;;4.30;;
59109;SDS011;44895;47.438;18.978;2022-08-19T13:51:48;8.90;;;3.05;;
59109;SDS011;44895;47.438;18.978;2022-08-19T13:54:51;12.60;;;5.35;;
59109;SDS011;44895;47.438;18.978;2022-08-19T13:57:56;9.18;;;3.60;;
59109;SDS011;44895;47.438;18.978;2022-08-19T14:01:05;14.23;;;6.50;;
59109;SDS011;44895;47.438;18.978;2022-08-19T14:04:09;6.18;;;2.67;;
59109;SDS011;44895;47.438;18.978;2022-08-19T14:07:13;7.32;;;3.33;;
59109;SDS011;44895;47.438;18.978;2022-08-19T14:10:17;10.70;;;3.70;;
59109;SDS011;44895;47.438;18.978;2022-08-19T14:13:22;8.48;;;2.97;;
59109;SDS011;44895;47.438;18.978;2022-08-19T14:16:27;15.38;;;5.72;;
59109;SDS011;44895;47.438;18.978;2022-08-19T14:19:31;6.68;;;3.05;;
59109;SDS011;44895;47.438;18.978;2022-08-19T14:22:35;11.98;;;3.50;;
59109;SDS011;44895;47.438;18.978;2022-08-19T14:25:41;7.32;;;4.53;;
59109;SDS011;44895;47.438;18.978;2022-08-19T14:28:45;12.60;;;3.40;;
59109;SDS011;44895;47.438;18.978;2022-08-19T14:31:49;9.10;;;3.60;;
59109;SDS011;44895;47.438;18.978;2022-08-19T14:34:53;9.25;;;2.67;;
59109;SDS011;44895;47.438;18.978;2022-08-19T14:37:57;11.80;;;2.63;;
59109;SDS011;44895;47.438;18.978;2022-08-19T14:41:05;5.13;;;2.22;;
59109;SDS011;44895;47.438;18.978;2022-08-19T14:44:25;9.25;;;2.50;;
59109;SDS011;44895;47.438;18.978;2022-08-19T14:47:29;8.93;;;2.33;;
59109;SDS011;44895;47.438;18.978;2022-08-19T14:50:33;6.10;;;2.05;;
59109;SDS011;44895;47.438;18.978;2022-08-19T14:53:37;4.28;;;2.22;;
59109;SDS011;44895;47.438;18.978;2022-08-19T14:56:41;11.75;;;2.25;;
59109;SDS011;44895;47.438;18.978;2022-08-19T14:59:45;8.25;;;2.53;;
59109;SDS011;44895;47.438;18.978;2022-08-19T15:02:49;9.68;;;1.88;;
59109;SDS011;44895;47.438;18.978;2022-08-19T15:05:53;8.18;;;2.75;;
59109;SDS011;44895;47.438;18.978;2022-08-19T15:08:59;5.75;;;1.77;;
59109;SDS011;44895;47.438;18.978;2022-08-19T15:12:03;9.45;;;2.35;;
59109;SDS011;44895;47.438;18.978;2022-08-19T15:15:09;5.82;;;2.22;;
59109;SDS011;44895;47.438;18.978;2022-08-19T15:18:16;8.82;;;3.13;;
59109;SDS011;44895;47.438;18.978;2022-08-19T15:21:20;6.85;;;1.80;;
59109;SDS011;44895;47.438;18.978;2022-08-19T15:24:24;4.43;;;1.00;;
59109;SDS011;44895;47.438;18.978;2022-08-19T15:27:28;9.27;;;2.33;;
59109;SDS011;44895;47.438;18.978;2022-08-19T15:30:32;10.32;;;3.47;;
59109;SDS011;44895;47.438;18.978;2022-08-19T15:33:36;6.30;;;2.30;;
59109;SDS011;44895;47.438;18.978;2022-08-19T15:36:40;14.27;;;2.38;;
59109;SDS011;44895;47.438;18.978;2022-08-19T15:39:44;8.25;;;2.10;;
59109;SDS011;44895;47.438;18.978;2022-08-19T15:42:49;10.38;;;2.13;;
59109;SDS011;44895;47.438;18.978;2022-08-19T15:45:52;8.85;;;1.85;;
59109;SDS011;44895;47.438;18.978;2022-08-19T15:48:57;7.57;;;3.03;;
59109;SDS011;44895;47.438;18.978;2022-08-19T15:52:01;11.35;;;2.67;;
59109;SDS011;44895;47.438;18.978;2022-08-19T15:55:06;8.40;;;2.80;;
59109;SDS011;44895;47.438;18.978;2022-08-19T15:58:11;6.82;;;2.38;;
59109;SDS011;44895;47.438;18.978;2022-08-19T16:01:35;8.35;;;3.00;;
59109;SDS011;44895;47.438;18.978;2022-08-19T16:04:58;12.05;;;2.95;;
59109;SDS011;44895;47.438;18.978;2022-08-19T16:08:20;7.53;;;2.35;;
59109;SDS011;44895;47.438;18.978;2022-08-19T16:11:24;8.05;;;2.10;;
59109;SDS011;44895;47.438;18.978;2022-08-19T16:14:32;7.18;;;2.20;;
59109;SDS011;44895;47.438;18.978;2022-08-19T16:17:38;13.60;;;4.97;;
59109;SDS011;44895;47.438;18.978;2022-08-19T16:20:41;8.48;;;1.90;;
59109;SDS011;44895;47.438;18.978;2022-08-19T16:23:46;14.15;;;2.78;;
59109;SDS011;44895;47.438;18.978;2022-08-19T16:26:51;12.35;;;2.08;;
59109;SDS011;44895;47.438;18.978;2022-08-19T16:29:55;10.25;;;2.85;;
59109;SDS011;44895;47.438;18.978;2022-08-19T16:32:59;6.53;;;1.85;;
59109;SDS011;44895;47.438;18.978;2022-08-19T16:36:03;5.82;;;1.90;;
59109;SDS011;44895;47.438;18.978;2022-08-19T16:39:09;12.00;;;2.67;;
59109;SDS011;44895;47.438;18.978;2022-08-19T16:42:14;10.90;;;3.15;;
59109;SDS011;44895;47.438;18.978;2022-08-19T16:45:18;9.27;;;2.67;;
59109;SDS011;44895;47.438;18.978;2022-08-19T16:48:25;12.02;;;2.47;;
59109;SDS011;44895;47.438;18.978;2022-08-19T16:51:32;8.98;;;1.95;;
59109;SDS011;44895;47.438;18.978;2022-08-19T16:54:36;5.00;;;2.17;;
59109;SDS011;44895;47.438;18.978;2022-08-19T16:57:40;5.82;;;2.17;;
59109;SDS011;44895;47.438;18.978;2022-08-19T17:00:44;7.93;;;2.80;;
59109;SDS011;44895;47.438;18.978;2022-08-19T17:03:48;7.13;;;2.35;;
59109;SDS011;44895;47.438;18.978;2022-08-19T17:06:54;8.80;;;3.67;;
59109;SDS011;44895;47.438;18.978;2022-08-19T17:09:57;6.78;;;3.17;;
59109;SDS011;44895;47.438;18.978;2022-08-19T17:13:01;11.02;;;3.58;;
59109;SDS011;44895;47.438;18.978;2022-08-19T17:16:05;14.00;;;3.00;;
59109;SDS011;44895;47.438;18.978;2022-08-19T17:19:09;7.38;;;2.17;;
59109;SDS011;44895;47.438;18.978;2022-08-19T17:22:13;7.68;;;2.50;;
59109;SDS011;44895;47.438;18.978;2022-08-19T17:25:17;8.15;;;2.15;;
59109;SDS011;44895;47.438;18.978;2022-08-19T17:28:28;8.80;;;2.38;;
59109;SDS011;44895;47.438;18.978;2022-08-19T17:31:32;5.43;;;2.47;;
59109;SDS011;44895;47.438;18.978;2022-08-19T17:34:37;5.65;;;2.58;;
59109;SDS011;44895;47.438;18.978;2022-08-19T17:37:41;5.43;;;2.10;;
59109;SDS011;44895;47.438;18.978;2022-08-19T17:40:45;7.68;;;3.70;;
59109;SDS011;44895;47.438;18.978;2022-08-19T17:43:49;8.63;;;2.03;;
59109;SDS011;44895;47.438;18.978;2022-08-19T17:46:53;7.60;;;2.60;;
59109;SDS011;44895;47.438;18.978;2022-08-19T17:49:58;7.07;;;2.38;;
59109;SDS011;44895;47.438;18.978;2022-08-19T17:53:02;5.63;;;1.65;;
59109;SDS011;44895;47.438;18.978;2022-08-19T17:56:08;5.55;;;2.63;;
59109;SDS011;44895;47.438;18.978;2022-08-19T17:59:12;7.40;;;2.17;;
59109;SDS011;44895;47.438;18.978;2022-08-19T18:02:17;7.13;;;2.58;;
59109;SDS011;44895;47.438;18.978;2022-08-19T18:05:22;4.28;;;2.33;;
59109;SDS011;44895;47.438;18.978;2022-08-19T18:08:28;7.28;;;2.45;;
59109;SDS011;44895;47.438;18.978;2022-08-19T18:11:32;12.40;;;3.70;;
59109;SDS011;44895;47.438;18.978;2022-08-19T18:14:37;9.75;;;3.17;;
59109;SDS011;44895;47.438;18.978;2022-08-19T18:17:41;11.82;;;2.75;;
59109;SDS011;44895;47.438;18.978;2022-08-19T18:20:45;8.88;;;2.20;;
59109;SDS011;44895;47.438;18.978;2022-08-19T18:23:49;11.50;;;3.42;;
59109;SDS011;44895;47.438;18.978;2022-08-19T18:26:52;11.93;;;2.65;;
59109;SDS011;44895;47.438;18.978;2022-08-19T18:29:56;8.20;;;3.08;;